CG Skipjack — NHOY — position and weather

sailwx.info

Track history (hours):
 
Tides and Currents Weather Stations Pressure Air Temp Water Temp Dewpoint Dewpoint Depression Visibility Wind Speed Wind Dir Waves Ship Positions

CG Skipjack

Last reported at 2017-Nov-09 00:29 UTC. Time now 2017-Nov-25 02:09 UTC.
Position N 29°53' W 092°08'.
Warning: this ship's position is 16 days out of date.

Length 26 m; draft 1.7 m.

Type: SAR. MMSI: 366999611.

Date/timePositionNaut miles runAvg speedWind from/ knotsBaromVisibWave heightAir tempDewpointWater temp
2017-Nov-09 00:29N 29°53' W 092°08'3 5.8
2017-Nov-09 00:00N 29°50' W 092°08'3 5.8
2017-Nov-08 23:30N 29°48' W 092°09'0 0.0
2017-Nov-08 23:00N 29°48' W 092°09'4 8.1
2017-Nov-08 22:30N 29°45' W 092°12'1020.5
2017-Nov-08 22:00N 29°36' W 092°17'  
2017-Nov-03 16:49N 29°36' W 092°17'3 9.0
2017-Nov-03 16:30N 29°39' W 092°16'5 9.2
2017-Nov-03 16:00N 29°43' W 092°15'5 9.6
2017-Nov-03 15:30N 29°46' W 092°11'2 4.4
2017-Nov-03 15:00N 29°48' W 092°09'1 2.7
2017-Nov-03 14:30N 29°49' W 092°08'5 0.2
2017-Nov-02 17:32N 29°54' W 092°07'1 5.6
2017-Nov-02 17:25N 29°53' W 092°08'2 6.0
2017-Nov-02 17:00N 29°51' W 092°08'3 6.4
2017-Nov-02 16:30N 29°48' W 092°08'510.8
2017-Nov-02 16:01N 29°45' W 092°13'815.8
2017-Nov-02 15:30N 29°37' W 092°17'  
Track history (hours):
 
Tides and Currents Weather Stations Pressure Air Temp Water Temp Dewpoint Dewpoint Depression Visibility Wind Speed Wind Dir Waves Ship Positions

CG Skipjack

Last reported at 2017-Nov-09 00:29 UTC. Time now 2017-Nov-25 02:09 UTC.
Position N 29°53' W 092°08'.
Warning: this ship's position is 16 days out of date.

Length 26 m; draft 1.7 m.

Type: SAR. MMSI: 366999611.

Date/timePositionNaut miles runAvg speedWind from/ knotsBaromVisibWave heightAir tempDewpointWater temp
2017-Nov-09 00:29N 29°53' W 092°08'3 5.8
2017-Nov-09 00:00N 29°50' W 092°08'3 5.8
2017-Nov-08 23:30N 29°48' W 092°09'0 0.0
2017-Nov-08 23:00N 29°48' W 092°09'4 8.1
2017-Nov-08 22:30N 29°45' W 092°12'1020.5
2017-Nov-08 22:00N 29°36' W 092°17'  
2017-Nov-03 16:49N 29°36' W 092°17'3 9.0
2017-Nov-03 16:30N 29°39' W 092°16'5 9.2
2017-Nov-03 16:00N 29°43' W 092°15'5 9.6
2017-Nov-03 15:30N 29°46' W 092°11'2 4.4
2017-Nov-03 15:00N 29°48' W 092°09'1 2.7
2017-Nov-03 14:30N 29°49' W 092°08'5 0.2
2017-Nov-02 17:32N 29°54' W 092°07'1 5.6
2017-Nov-02 17:25N 29°53' W 092°08'2 6.0
2017-Nov-02 17:00N 29°51' W 092°08'3 6.4
2017-Nov-02 16:30N 29°48' W 092°08'510.8
2017-Nov-02 16:01N 29°45' W 092°13'815.8
2017-Nov-02 15:30N 29°37' W 092°17'  

Dump ship's entire track history